createdAt,value
2023-02-27T00:01:37.052Z,100.00
2023-02-27T00:04:06.466Z,100.00
2023-02-27T00:06:37.183Z,100.00
2023-02-27T00:09:06.997Z,100.00
2023-02-27T00:11:38.672Z,100.00
2023-02-27T00:14:08.483Z,99.64
2023-02-27T00:16:37.763Z,99.73
2023-02-27T00:19:07.182Z,99.37
2023-02-27T00:21:38.137Z,99.07
2023-02-27T00:24:08.851Z,99.18
2023-02-27T00:26:38.180Z,99.31
2023-02-27T00:29:08.190Z,99.11
2023-02-27T00:31:37.474Z,99.92
2023-02-27T00:34:06.933Z,99.91
2023-02-27T00:36:37.688Z,99.91
2023-02-27T00:39:07.191Z,99.87
2023-02-27T00:41:36.603Z,99.91
2023-02-27T00:44:06.172Z,99.89
2023-02-27T00:46:35.686Z,100.00
2023-02-27T00:50:34.088Z,99.80
2023-02-27T00:53:03.410Z,99.39
2023-02-27T00:55:32.686Z,99.38
2023-02-27T00:58:02.042Z,99.37
2023-02-27T01:00:31.771Z,99.04
2023-02-27T01:03:01.135Z,99.02
2023-02-27T01:05:30.491Z,99.17
2023-02-27T01:08:01.337Z,98.88
2023-02-27T01:10:30.656Z,98.64
2023-02-27T01:12:59.978Z,98.10
2023-02-27T01:15:29.281Z,97.91
2023-02-27T01:17:58.821Z,97.67
2023-02-27T01:20:28.237Z,97.31
2023-02-27T01:22:57.596Z,97.27
2023-02-27T01:25:28.393Z,97.02
2023-02-27T01:27:57.890Z,96.81
2023-02-27T01:30:27.202Z,96.89
2023-02-27T01:32:56.683Z,96.86
2023-02-27T01:35:26.029Z,96.64
2023-02-27T01:37:55.350Z,96.50
2023-02-27T01:40:24.834Z,96.54
2023-02-27T01:42:55.862Z,96.29
2023-02-27T01:45:39.553Z,96.37
2023-02-27T01:48:17.253Z,96.45
2023-02-27T01:50:52.415Z,96.13
2023-02-27T01:53:26.116Z,96.24
2023-02-27T01:55:58.166Z,96.10
2023-02-27T01:58:29.471Z,95.79
2023-02-27T02:00:59.713Z,95.59
2023-02-27T02:03:41.580Z,95.64
2023-02-27T02:06:11.720Z,95.64
2023-02-27T02:08:46.543Z,95.77
2023-02-27T02:11:19.799Z,95.77
2023-02-27T02:13:55.113Z,95.71
2023-02-27T02:16:45.969Z,95.97
2023-02-27T02:19:57.099Z,95.90
2023-02-27T02:23:19.630Z,95.63
2023-02-27T02:26:19.891Z,95.53
2023-02-27T02:29:44.431Z,96.29
2023-02-27T02:33:12.187Z,96.00
2023-02-27T02:36:47.354Z,96.61
2023-02-27T02:40:07.766Z,96.47
2023-02-27T02:42:44.288Z,97.08
2023-02-27T02:45:22.079Z,96.79
2023-02-27T02:48:06.057Z,96.26
2023-02-27T02:50:43.137Z,96.53
2023-02-27T02:53:37.001Z,96.35
2023-02-27T02:56:14.835Z,96.55
2023-02-27T02:58:53.411Z,97.11
2023-02-27T03:01:28.325Z,97.17
2023-02-27T03:04:04.289Z,97.58
2023-02-27T03:06:37.766Z,98.17
2023-02-27T03:09:13.942Z,97.90
2023-02-27T03:11:49.372Z,97.80
2023-02-27T03:14:30.912Z,97.85
2023-02-27T03:17:06.037Z,98.92
2023-02-27T03:19:42.857Z,99.18
2023-02-27T03:22:17.057Z,99.07
2023-02-27T03:24:50.217Z,99.04
2023-02-27T03:27:22.246Z,99.09
2023-02-27T03:29:57.418Z,99.90
2023-02-27T03:32:34.000Z,99.48
2023-02-27T03:35:04.533Z,99.62
2023-02-27T03:38:00.676Z,99.58
2023-02-27T03:40:36.867Z,100.00
2023-02-27T03:43:20.514Z,100.00
2023-02-27T03:46:00.971Z,100.00
2023-02-27T03:51:34.762Z,100.00
2023-02-27T03:54:10.898Z,100.00
2023-02-27T03:56:46.112Z,100.00
2023-02-27T03:59:16.450Z,100.00
2023-02-27T04:01:47.152Z,100.00
2023-02-27T04:04:19.168Z,100.00
2023-02-27T04:07:14.461Z,100.00
2023-02-27T04:10:18.994Z,100.00
2023-02-27T04:13:19.333Z,100.00
2023-02-27T04:16:15.914Z,100.00
2023-02-27T04:19:05.693Z,100.00
2023-02-27T04:21:43.876Z,100.00
2023-02-27T04:24:32.429Z,100.00
2023-02-27T04:27:10.228Z,100.00
2023-02-27T04:29:50.171Z,99.50
2023-02-27T04:32:27.530Z,100.00
2023-02-27T04:35:01.609Z,100.00
2023-02-27T04:37:36.610Z,100.00
2023-02-27T04:40:13.709Z,100.00
2023-02-27T04:42:48.336Z,100.00
2023-02-27T04:45:21.428Z,100.00
2023-02-27T04:47:57.016Z,100.00
2023-02-27T04:50:31.360Z,100.00
2023-02-27T04:53:09.065Z,100.00
2023-02-27T04:55:46.903Z,100.00
2023-02-27T04:58:24.450Z,100.00
2023-02-27T05:01:01.154Z,100.00
2023-02-27T05:03:37.371Z,100.00
2023-02-27T05:06:07.368Z,100.00
2023-02-27T05:08:43.311Z,100.00
2023-02-27T05:11:22.636Z,100.00
2023-02-27T05:13:56.416Z,100.00
2023-02-27T05:16:33.323Z,100.00
2023-02-27T05:19:04.733Z,100.00
2023-02-27T05:21:40.548Z,100.00
2023-02-27T05:24:20.139Z,100.00
2023-02-27T05:27:12.234Z,100.00
2023-02-27T05:29:50.096Z,100.00
2023-02-27T05:32:32.280Z,100.00
2023-02-27T05:35:14.398Z,100.00
2023-02-27T05:37:49.849Z,100.00
2023-02-27T05:40:25.697Z,100.00
2023-02-27T05:43:03.712Z,100.00
2023-02-27T05:45:36.009Z,100.00
2023-02-27T05:48:10.466Z,100.00
2023-02-27T05:50:41.727Z,100.00
2023-02-27T05:53:17.872Z,100.00
2023-02-27T05:55:51.799Z,100.00
2023-02-27T05:58:27.900Z,100.00
2023-02-27T06:01:01.567Z,100.00
2023-02-27T06:03:34.920Z,100.00
2023-02-27T06:06:07.861Z,100.00
2023-02-27T06:08:38.229Z,100.00
2023-02-27T06:11:08.354Z,100.00
2023-02-27T06:13:41.729Z,100.00
2023-02-27T06:16:14.210Z,100.00
2023-02-27T06:18:43.619Z,100.00
2023-02-27T06:21:16.860Z,100.00
2023-02-27T06:23:46.236Z,100.00
2023-02-27T06:26:15.958Z,100.00
2023-02-27T06:28:46.788Z,100.00
2023-02-27T06:31:16.436Z,100.00
2023-02-27T06:33:49.108Z,100.00
2023-02-27T06:36:18.650Z,100.00
2023-02-27T06:38:47.959Z,100.00
2023-02-27T06:41:17.432Z,100.00
2023-02-27T06:43:48.334Z,100.00
2023-02-27T06:46:17.711Z,100.00
2023-02-27T06:51:33.966Z,100.00
2023-02-27T06:54:03.615Z,100.00
2023-02-27T06:56:33.029Z,100.00
2023-02-27T06:59:02.347Z,100.00
2023-02-27T07:01:31.714Z,100.00
2023-02-27T07:04:01.760Z,98.17
2023-02-27T07:07:36.133Z,96.88
2023-02-27T07:09:23.324Z,95.88
2023-02-27T07:11:53.705Z,93.70
2023-02-27T07:14:23.582Z,92.74
2023-02-27T07:16:55.320Z,89.46
2023-02-27T07:19:26.202Z,89.13
2023-02-27T07:21:56.916Z,87.17
2023-02-27T07:24:26.448Z,85.99
2023-02-27T07:26:55.978Z,84.23
2023-02-27T07:29:25.267Z,84.12
2023-02-27T07:31:54.657Z,84.19
2023-02-27T07:34:23.923Z,81.46
2023-02-27T07:36:53.341Z,81.97
2023-02-27T07:39:24.187Z,80.96
2023-02-27T07:41:53.633Z,80.87
2023-02-27T07:44:23.097Z,80.78
2023-02-27T07:46:52.652Z,78.55
2023-02-27T07:49:22.042Z,75.38
2023-02-27T07:51:51.669Z,74.80
2023-02-27T07:54:22.688Z,75.46
2023-02-27T07:56:52.182Z,74.98
2023-02-27T07:59:21.663Z,75.22
2023-02-27T08:01:51.105Z,74.31
2023-02-27T08:04:20.405Z,71.99
2023-02-27T08:06:49.854Z,69.73
2023-02-27T08:09:19.492Z,63.27
2023-02-27T08:11:50.170Z,67.25
2023-02-27T08:14:19.584Z,68.98
2023-02-27T08:16:48.857Z,67.28
2023-02-27T08:19:18.465Z,67.61
2023-02-27T08:21:47.839Z,66.84
2023-02-27T08:24:17.290Z,64.02
2023-02-27T08:26:46.671Z,63.23
2023-02-27T08:29:17.603Z,63.19
2023-02-27T08:31:48.617Z,62.58
2023-02-27T08:34:18.196Z,61.44
2023-02-27T08:37:06.570Z,60.20
2023-02-27T08:39:35.856Z,60.13
2023-02-27T08:42:05.355Z,59.26
2023-02-27T08:44:36.470Z,59.05
2023-02-27T08:47:06.369Z,60.19
2023-02-27T08:49:36.031Z,59.83
2023-02-27T08:52:05.886Z,61.35
2023-02-27T08:54:35.419Z,61.17
2023-02-27T08:57:05.289Z,62.08
2023-02-27T08:59:36.245Z,62.70
2023-02-27T09:02:06.555Z,63.82
2023-02-27T09:04:36.375Z,62.90
2023-02-27T09:07:06.104Z,63.07
2023-02-27T09:09:35.521Z,63.25
2023-02-27T09:12:04.911Z,63.63
2023-02-27T09:14:35.749Z,63.89
2023-02-27T09:17:05.283Z,63.92
2023-02-27T09:19:34.734Z,60.21
2023-02-27T09:22:04.215Z,58.94
2023-02-27T09:24:33.651Z,59.50
2023-02-27T09:27:03.229Z,58.33
2023-02-27T09:29:32.628Z,58.36
2023-02-27T09:32:03.555Z,58.28
2023-02-27T09:34:33.077Z,56.85
2023-02-27T09:37:02.713Z,58.54
2023-02-27T09:39:32.596Z,56.95
2023-02-27T09:42:06.661Z,57.65
2023-02-27T09:44:47.395Z,57.83
2023-02-27T09:47:27.180Z,55.64
2023-02-27T09:51:33.809Z,57.70
2023-02-27T09:54:04.267Z,57.30
2023-02-27T09:56:37.375Z,58.26
2023-02-27T09:59:15.369Z,57.65
2023-02-27T10:01:52.068Z,56.82
2023-02-27T10:04:41.080Z,54.29
2023-02-27T10:07:19.671Z,56.19
2023-02-27T10:10:06.067Z,57.32
2023-02-27T10:12:48.197Z,54.11
2023-02-27T10:15:26.016Z,56.69
2023-02-27T10:18:10.499Z,57.49
2023-02-27T10:20:56.322Z,56.41
2023-02-27T10:23:43.298Z,56.87
2023-02-27T10:26:20.768Z,56.53
2023-02-27T10:28:50.616Z,57.47
2023-02-27T10:31:26.417Z,57.79
2023-02-27T10:33:58.247Z,58.16
2023-02-27T10:36:34.128Z,59.06
2023-02-27T10:39:09.315Z,58.87
2023-02-27T10:41:40.361Z,58.20
2023-02-27T10:44:11.223Z,59.78
2023-02-27T10:46:42.521Z,57.47
2023-02-27T10:49:19.405Z,59.57
2023-02-27T10:51:49.869Z,58.66
2023-02-27T10:54:24.855Z,58.04
2023-02-27T10:56:58.136Z,58.83
2023-02-27T10:59:30.452Z,58.03
2023-02-27T11:02:03.566Z,58.59
2023-02-27T11:04:36.885Z,58.28
2023-02-27T11:07:16.124Z,57.70
2023-02-27T11:10:03.587Z,58.49
2023-02-27T11:12:35.699Z,57.66
2023-02-27T11:15:25.818Z,55.09
2023-02-27T11:17:55.346Z,56.97
2023-02-27T11:20:40.029Z,55.74
2023-02-27T11:23:18.538Z,55.48
2023-02-27T11:25:49.757Z,55.51
2023-02-27T11:28:28.497Z,56.35
2023-02-27T11:31:03.807Z,56.78
2023-02-27T11:33:42.912Z,55.94
2023-02-27T11:36:12.452Z,53.95
2023-02-27T11:38:41.893Z,55.36
2023-02-27T11:41:12.815Z,56.48
2023-02-27T11:43:51.345Z,55.87
2023-02-27T11:46:47.267Z,55.44
2023-02-27T11:49:33.997Z,54.16
2023-02-27T11:52:12.755Z,54.31
2023-02-27T11:54:46.588Z,55.47
2023-02-27T11:57:27.021Z,55.80
2023-02-27T12:00:03.729Z,55.88
2023-02-27T12:02:47.638Z,54.85
2023-02-27T12:05:21.088Z,54.96
2023-02-27T12:07:57.176Z,55.36
2023-02-27T12:10:30.909Z,54.22
2023-02-27T12:13:06.604Z,54.49
2023-02-27T12:15:46.567Z,53.37
2023-02-27T12:18:24.555Z,54.75
2023-02-27T12:21:00.800Z,54.11
2023-02-27T12:23:40.636Z,55.04
2023-02-27T12:26:19.132Z,54.24
2023-02-27T12:28:59.490Z,55.01
2023-02-27T12:31:49.060Z,55.20
2023-02-27T12:34:28.637Z,56.40
2023-02-27T12:37:05.506Z,57.07
2023-02-27T12:39:36.349Z,57.05
2023-02-27T12:42:45.405Z,55.28
2023-02-27T12:45:43.975Z,56.67
2023-02-27T12:51:48.070Z,56.46
2023-02-27T12:54:38.298Z,57.02
2023-02-27T12:57:30.067Z,57.45
2023-02-27T13:00:15.151Z,55.50
2023-02-27T13:02:58.808Z,57.54
2023-02-27T13:05:43.545Z,57.74
2023-02-27T13:08:45.579Z,57.01
2023-02-27T13:11:28.067Z,56.89
2023-02-27T13:14:02.433Z,57.22
2023-02-27T13:16:36.824Z,57.94
2023-02-27T13:19:14.136Z,58.89
2023-02-27T13:21:51.771Z,58.34
2023-02-27T13:24:28.380Z,56.96
2023-02-27T13:27:03.912Z,58.35
2023-02-27T13:29:47.790Z,57.40
2023-02-27T13:32:43.054Z,57.95
2023-02-27T13:35:28.877Z,57.73
2023-02-27T13:38:02.521Z,56.29
2023-02-27T13:40:42.468Z,56.35
2023-02-27T13:43:51.313Z,56.88
2023-02-27T13:46:25.846Z,56.68
2023-02-27T13:48:55.706Z,57.32
2023-02-27T13:51:49.231Z,56.44
2023-02-27T13:54:29.292Z,57.02
2023-02-27T13:57:25.012Z,56.75
2023-02-27T14:00:10.012Z,57.21
2023-02-27T14:02:59.995Z,57.01
2023-02-27T14:05:37.081Z,56.87
2023-02-27T14:08:16.891Z,58.38
2023-02-27T14:11:00.097Z,58.36
2023-02-27T14:14:02.179Z,56.62
2023-02-27T14:16:58.970Z,57.44
2023-02-27T14:19:57.273Z,58.59
2023-02-27T14:23:19.029Z,58.60
2023-02-27T14:25:52.639Z,58.79
2023-02-27T14:28:31.702Z,58.90
2023-02-27T14:31:06.115Z,58.77
2023-02-27T14:33:45.625Z,59.58
2023-02-27T14:36:21.689Z,59.75
2023-02-27T14:38:52.003Z,59.77
2023-02-27T14:41:39.676Z,60.44
2023-02-27T14:44:22.493Z,60.89
2023-02-27T14:46:55.660Z,61.58
2023-02-27T14:49:31.495Z,61.98
2023-02-27T14:52:14.903Z,62.28
2023-02-27T14:54:45.357Z,63.08
2023-02-27T14:57:20.256Z,63.82
2023-02-27T14:59:51.379Z,64.64
2023-02-27T15:02:28.615Z,65.08
2023-02-27T15:05:18.202Z,65.66
2023-02-27T15:07:50.435Z,66.37
2023-02-27T15:10:26.035Z,66.81
2023-02-27T15:12:55.550Z,67.31
2023-02-27T15:15:25.081Z,67.63
2023-02-27T15:17:57.172Z,67.93
2023-02-27T15:20:31.220Z,67.95
2023-02-27T15:23:01.824Z,68.25
2023-02-27T15:25:33.957Z,68.81
2023-02-27T15:28:06.708Z,68.66
2023-02-27T15:30:36.492Z,68.71
2023-02-27T15:33:15.437Z,68.81
2023-02-27T15:35:47.170Z,68.99
2023-02-27T15:38:28.104Z,69.38
2023-02-27T15:40:59.337Z,69.67
2023-02-27T15:43:30.852Z,69.87
2023-02-27T15:46:01.018Z,70.02
2023-02-27T15:51:33.706Z,70.55
2023-02-27T15:54:05.415Z,70.72
2023-02-27T15:56:38.094Z,70.97
2023-02-27T15:59:08.048Z,71.07
2023-02-27T16:01:38.544Z,70.90
2023-02-27T16:04:20.647Z,71.08
2023-02-27T16:07:00.943Z,71.20
2023-02-27T16:09:33.566Z,71.21
2023-02-27T16:12:29.209Z,71.57
2023-02-27T16:15:26.277Z,71.63
2023-02-27T16:18:03.168Z,71.78
2023-02-27T16:20:42.901Z,71.66
2023-02-27T16:23:25.224Z,72.15
2023-02-27T16:26:28.533Z,72.27
2023-02-27T16:29:00.990Z,72.43
2023-02-27T16:31:33.286Z,72.79
2023-02-27T16:34:14.629Z,72.80
2023-02-27T16:36:53.007Z,73.37
2023-02-27T16:39:24.399Z,73.98
2023-02-27T16:41:55.469Z,74.14
2023-02-27T16:44:25.290Z,74.52
2023-02-27T16:46:56.296Z,74.68
2023-02-27T16:49:28.724Z,74.99
2023-02-27T16:52:02.941Z,75.10
2023-02-27T16:54:33.884Z,75.14
2023-02-27T16:57:03.396Z,75.33
2023-02-27T16:59:35.095Z,75.86
2023-02-27T17:02:08.173Z,76.20
2023-02-27T17:04:37.603Z,76.45
2023-02-27T17:07:07.370Z,76.57
2023-02-27T17:09:38.088Z,76.94
2023-02-27T17:12:07.782Z,77.27
2023-02-27T17:14:37.946Z,77.56
2023-02-27T17:17:08.012Z,78.43
2023-02-27T17:19:37.471Z,77.99
2023-02-27T17:22:06.810Z,78.35
2023-02-27T17:24:39.067Z,78.92
2023-02-27T17:27:08.849Z,79.07
2023-02-27T17:29:40.213Z,78.90
2023-02-27T17:32:09.534Z,78.95
2023-02-27T17:34:39.036Z,78.93
2023-02-27T17:37:08.605Z,79.08
2023-02-27T17:39:41.415Z,80.13
2023-02-27T17:42:12.932Z,80.02
2023-02-27T17:44:44.864Z,80.45
2023-02-27T17:47:14.729Z,80.03
2023-02-27T17:49:44.214Z,80.22
2023-02-27T17:52:13.911Z,80.00
2023-02-27T17:54:44.918Z,80.75
2023-02-27T17:57:14.271Z,81.46
2023-02-27T17:59:44.597Z,81.70
2023-02-27T18:02:15.334Z,82.07
2023-02-27T18:04:44.755Z,82.24
2023-02-27T18:07:14.267Z,81.80
2023-02-27T18:09:46.806Z,82.23
2023-02-27T18:12:15.830Z,82.74
2023-02-27T18:14:45.115Z,83.12
2023-02-27T18:17:14.393Z,83.11
2023-02-27T18:19:45.322Z,83.93
2023-02-27T18:22:16.508Z,83.70
2023-02-27T18:24:47.232Z,85.07
2023-02-27T18:27:16.534Z,85.45
2023-02-27T18:29:45.845Z,85.71
2023-02-27T18:32:15.326Z,85.86
2023-02-27T18:34:44.847Z,86.37
2023-02-27T18:37:14.193Z,87.02
2023-02-27T18:39:43.532Z,86.33
2023-02-27T18:42:14.320Z,86.48
2023-02-27T18:44:43.728Z,86.18
2023-02-27T18:47:13.296Z,86.40
2023-02-27T18:51:33.613Z,86.77
2023-02-27T18:54:05.293Z,86.11
2023-02-27T18:56:34.642Z,86.68
2023-02-27T18:59:05.510Z,86.45
2023-02-27T19:01:39.226Z,86.65
2023-02-27T19:04:11.635Z,86.87
2023-02-27T19:06:44.236Z,86.57
2023-02-27T19:09:16.303Z,86.79
2023-02-27T19:11:48.232Z,86.78
2023-02-27T19:14:18.619Z,86.78
2023-02-27T19:16:50.044Z,86.65
2023-02-27T19:19:20.458Z,86.54
2023-02-27T19:21:51.228Z,86.71
2023-02-27T19:24:20.621Z,86.68
2023-02-27T19:26:51.133Z,86.58
2023-02-27T19:29:21.948Z,86.28
2023-02-27T19:31:51.974Z,86.05
2023-02-27T19:34:21.346Z,87.33
2023-02-27T19:36:52.240Z,89.05
2023-02-27T19:39:22.596Z,88.20
2023-02-27T19:41:51.982Z,88.37
2023-02-27T19:44:21.736Z,87.59
2023-02-27T19:46:52.219Z,88.57
2023-02-27T19:49:22.035Z,88.21
2023-02-27T19:51:52.841Z,87.94
2023-02-27T19:54:22.254Z,87.65
2023-02-27T19:56:52.933Z,88.02
2023-02-27T19:59:24.869Z,88.87
2023-02-27T20:01:54.931Z,88.95
2023-02-27T20:04:24.618Z,88.81
2023-02-27T20:06:55.722Z,89.09
2023-02-27T20:09:27.082Z,88.76
2023-02-27T20:12:00.457Z,89.61
2023-02-27T20:14:30.656Z,91.21
2023-02-27T20:17:00.297Z,90.69
2023-02-27T20:19:30.141Z,91.02
2023-02-27T20:22:00.917Z,91.71
2023-02-27T20:24:30.438Z,91.15
2023-02-27T20:27:00.316Z,92.21
2023-02-27T20:29:30.335Z,92.59
2023-02-27T20:32:00.491Z,95.07
2023-02-27T20:34:30.096Z,93.03
2023-02-27T20:37:01.262Z,91.55
2023-02-27T20:39:31.014Z,93.05
2023-02-27T20:42:00.934Z,92.63
2023-02-27T20:44:30.695Z,93.33
2023-02-27T20:47:00.051Z,94.05
2023-02-27T20:49:29.530Z,93.12
2023-02-27T20:52:00.324Z,93.95
2023-02-27T20:54:29.814Z,93.94
2023-02-27T20:56:59.286Z,93.85
2023-02-27T20:59:28.881Z,93.76
2023-02-27T21:01:59.801Z,93.41
2023-02-27T21:04:42.616Z,93.61
2023-02-27T21:07:15.115Z,94.96
2023-02-27T21:09:44.877Z,95.03
2023-02-27T21:12:14.840Z,94.56
2023-02-27T21:14:45.472Z,94.65
2023-02-27T21:17:15.495Z,96.05
2023-02-27T21:19:44.836Z,100.00
2023-02-27T21:22:17.109Z,100.00
2023-02-27T21:24:46.950Z,100.00
2023-02-27T21:27:19.888Z,100.00
2023-02-27T21:29:50.080Z,100.00
2023-02-27T21:32:22.566Z,100.00
2023-02-27T21:34:51.937Z,100.00
2023-02-27T21:37:22.766Z,100.00
2023-02-27T21:39:55.489Z,100.00
2023-02-27T21:42:24.547Z,100.00
2023-02-27T21:44:53.976Z,100.00
2023-02-27T21:47:23.355Z,100.00
2023-02-27T21:51:40.403Z,100.00
2023-02-27T21:54:13.722Z,100.00
2023-02-27T21:56:44.820Z,100.00
2023-02-27T21:59:15.028Z,99.86
2023-02-27T22:01:48.502Z,98.45
2023-02-27T22:04:19.265Z,97.68
2023-02-27T22:06:51.637Z,97.97
2023-02-27T22:09:21.433Z,97.64
2023-02-27T22:11:51.366Z,98.53
2023-02-27T22:14:20.778Z,98.97
2023-02-27T22:16:50.297Z,98.78
2023-02-27T22:19:22.215Z,99.46
2023-02-27T22:21:52.959Z,99.36
2023-02-27T22:24:22.478Z,99.76
2023-02-27T22:26:51.982Z,99.55
2023-02-27T22:29:21.401Z,100.00
2023-02-27T22:31:51.153Z,99.88
2023-02-27T22:34:20.882Z,99.59
2023-02-27T22:36:53.351Z,99.17
2023-02-27T22:39:23.307Z,99.27
2023-02-27T22:41:56.500Z,98.75
2023-02-27T22:44:26.296Z,98.39
2023-02-27T22:46:57.994Z,98.94
2023-02-27T22:49:27.418Z,99.38
2023-02-27T22:51:58.187Z,99.04
2023-02-27T22:54:27.581Z,98.58
2023-02-27T22:56:58.158Z,98.25
2023-02-27T22:59:28.147Z,97.40
2023-02-27T23:01:57.676Z,97.77
2023-02-27T23:04:27.236Z,97.14
2023-02-27T23:06:58.587Z,97.01
2023-02-27T23:09:28.424Z,96.79
2023-02-27T23:11:59.052Z,97.46
2023-02-27T23:14:28.429Z,96.87
2023-02-27T23:16:57.854Z,96.41
2023-02-27T23:19:27.173Z,97.33
2023-02-27T23:21:58.077Z,96.27
2023-02-27T23:24:27.606Z,96.25
2023-02-27T23:26:57.025Z,96.91
2023-02-27T23:29:26.398Z,97.10
2023-02-27T23:31:55.821Z,97.46
2023-02-27T23:34:25.192Z,98.85
2023-02-27T23:36:54.781Z,100.00
2023-02-27T23:39:25.638Z,100.00
2023-02-27T23:41:57.981Z,100.00
2023-02-27T23:44:28.267Z,100.00
2023-02-27T23:46:57.703Z,99.56
2023-02-27T23:49:27.086Z,98.88
2023-02-27T23:51:56.713Z,100.00
2023-02-27T23:54:27.638Z,100.00
2023-02-27T23:56:57.189Z,100.00
2023-02-27T23:59:30.398Z,100.00
